createdAt,value
2018-12-05T00:00:38.703Z,9.63
2018-12-05T00:01:42.988Z,8.90
2018-12-05T00:02:47.041Z,9.33
2018-12-05T00:03:51.181Z,9.28
2018-12-05T00:04:55.435Z,8.95
2018-12-05T00:05:59.618Z,9.65
2018-12-05T00:07:03.793Z,9.35
2018-12-05T00:08:08.638Z,8.10
2018-12-05T00:09:12.750Z,9.20
2018-12-05T00:10:16.880Z,8.98
2018-12-05T00:11:21.067Z,8.83
2018-12-05T00:12:25.287Z,7.80
2018-12-05T00:13:29.511Z,9.25
2018-12-05T00:14:33.739Z,10.25
2018-12-05T00:15:37.902Z,9.88
2018-12-05T00:16:41.945Z,8.53
2018-12-05T00:17:46.064Z,9.08
2018-12-05T00:18:50.099Z,11.43
2018-12-05T00:19:54.204Z,9.03
2018-12-05T00:20:58.246Z,8.70
2018-12-05T00:22:02.314Z,9.68
2018-12-05T00:23:06.351Z,9.60
2018-12-05T00:24:10.367Z,9.45
2018-12-05T00:25:14.467Z,8.60
2018-12-05T00:26:24.956Z,10.03
2018-12-05T00:27:29.088Z,9.45
2018-12-05T00:28:33.183Z,9.58
2018-12-05T00:29:37.352Z,9.80
2018-12-05T00:30:41.617Z,9.85
2018-12-05T00:31:46.346Z,10.08
2018-12-05T00:32:50.462Z,9.78
2018-12-05T00:33:54.606Z,11.40
2018-12-05T00:34:58.727Z,9.73
2018-12-05T00:36:02.760Z,10.80
2018-12-05T00:37:06.788Z,9.95
2018-12-05T00:38:10.947Z,10.05
2018-12-05T00:39:15.182Z,10.00
2018-12-05T00:40:19.315Z,9.73
2018-12-05T00:41:23.319Z,9.35
2018-12-05T00:42:27.374Z,9.63
2018-12-05T00:43:31.419Z,9.90
2018-12-05T00:44:35.450Z,9.88
2018-12-05T00:45:39.490Z,9.60
2018-12-05T00:46:43.539Z,9.28
2018-12-05T00:47:47.586Z,10.70
2018-12-05T00:48:51.708Z,13.00
2018-12-05T00:49:55.746Z,10.23
2018-12-05T00:50:59.939Z,9.10
2018-12-05T00:52:04.186Z,11.50
2018-12-05T00:53:08.316Z,10.00
2018-12-05T00:54:12.441Z,10.55
2018-12-05T00:55:16.555Z,9.98
2018-12-05T00:57:26.439Z,9.70
2018-12-05T00:58:30.603Z,9.25
2018-12-05T00:59:34.748Z,10.32
2018-12-05T01:00:38.833Z,10.85
2018-12-05T01:01:42.881Z,11.18
2018-12-05T01:02:47.069Z,11.45
2018-12-05T01:03:51.206Z,9.60
2018-12-05T01:04:55.219Z,11.25
2018-12-05T01:05:59.258Z,10.55
2018-12-05T01:07:03.496Z,11.20
2018-12-05T01:08:07.768Z,11.65
2018-12-05T01:09:12.891Z,11.03
2018-12-05T01:10:17.172Z,10.45
2018-12-05T01:11:21.402Z,10.10
2018-12-05T01:12:25.614Z,11.40
2018-12-05T01:13:29.685Z,8.83
2018-12-05T01:14:33.766Z,10.95
2018-12-05T01:15:37.877Z,11.25
2018-12-05T01:16:41.967Z,11.95
2018-12-05T01:17:46.071Z,10.80
2018-12-05T01:18:50.113Z,10.15
2018-12-05T01:19:54.303Z,10.65
2018-12-05T01:20:58.311Z,9.50
2018-12-05T01:22:02.393Z,10.08
2018-12-05T01:23:06.544Z,12.00
2018-12-05T01:24:10.589Z,10.40
2018-12-05T01:25:14.681Z,10.95
2018-12-05T01:26:18.723Z,12.10
2018-12-05T01:27:22.888Z,10.40
2018-12-05T01:28:27.134Z,11.30
2018-12-05T01:29:31.229Z,10.98
2018-12-05T01:32:20.343Z,10.43
2018-12-05T01:33:24.438Z,9.98
2018-12-05T01:34:28.558Z,10.80
2018-12-05T01:35:33.040Z,10.98
2018-12-05T01:36:37.094Z,10.58
2018-12-05T01:37:41.358Z,11.28
2018-12-05T01:38:45.396Z,11.35
2018-12-05T01:39:49.398Z,10.50
2018-12-05T01:40:53.494Z,11.08
2018-12-05T01:41:57.506Z,11.65
2018-12-05T01:43:01.525Z,12.63
2018-12-05T01:44:05.647Z,13.15
2018-12-05T01:45:09.907Z,11.28
2018-12-05T01:46:14.079Z,11.45
2018-12-05T01:47:18.084Z,11.00
2018-12-05T01:48:22.091Z,14.00
2018-12-05T01:49:26.349Z,11.95
2018-12-05T01:50:30.398Z,11.57
2018-12-05T01:51:34.511Z,12.28
2018-12-05T01:52:38.505Z,10.95
2018-12-05T01:53:42.705Z,11.10
2018-12-05T01:54:46.840Z,10.45
2018-12-05T01:55:50.910Z,11.73
2018-12-05T01:56:54.976Z,11.63
2018-12-05T01:57:58.989Z,11.57
2018-12-05T01:59:03.196Z,12.00
2018-12-05T02:00:07.636Z,12.15
2018-12-05T02:01:11.828Z,12.20
2018-12-05T02:02:16.047Z,10.95
2018-12-05T02:03:20.126Z,11.70
2018-12-05T02:04:24.122Z,10.80
2018-12-05T02:05:28.284Z,11.55
2018-12-05T02:06:32.464Z,10.38
2018-12-05T02:07:36.607Z,11.20
2018-12-05T02:08:40.666Z,13.80
2018-12-05T02:09:47.051Z,12.13
2018-12-05T02:10:51.153Z,10.68
2018-12-05T02:11:55.511Z,10.60
2018-12-05T02:12:59.594Z,9.93
2018-12-05T02:14:04.772Z,12.05
2018-12-05T02:15:08.963Z,11.12
2018-12-05T02:16:13.061Z,10.13
2018-12-05T02:17:17.192Z,11.40
2018-12-05T02:18:21.209Z,12.00
2018-12-05T02:19:25.694Z,12.20
2018-12-05T02:20:29.854Z,11.88
2018-12-05T02:21:34.069Z,10.80
2018-12-05T02:22:38.156Z,11.43
2018-12-05T02:23:42.233Z,10.38
2018-12-05T02:24:46.401Z,11.00
2018-12-05T02:25:50.555Z,11.15
2018-12-05T02:26:54.805Z,10.32
2018-12-05T02:27:58.883Z,12.15
2018-12-05T02:29:03.022Z,10.93
2018-12-05T02:30:07.484Z,12.23
2018-12-05T02:31:11.680Z,10.50
2018-12-05T02:32:15.742Z,12.05
2018-12-05T02:33:19.864Z,11.30
2018-12-05T02:34:24.052Z,12.35
2018-12-05T02:35:28.081Z,12.73
2018-12-05T02:36:32.212Z,11.57
2018-12-05T02:37:36.263Z,11.68
2018-12-05T02:38:41.561Z,12.33
2018-12-05T02:39:45.596Z,11.12
2018-12-05T02:40:49.698Z,11.88
2018-12-05T02:41:55.883Z,12.28
2018-12-05T02:42:59.955Z,12.35
2018-12-05T02:44:04.271Z,11.35
2018-12-05T02:45:08.489Z,10.48
2018-12-05T02:46:12.492Z,11.40
2018-12-05T02:47:16.535Z,11.73
2018-12-05T02:48:20.534Z,12.13
2018-12-05T02:49:24.742Z,12.13
2018-12-05T02:50:28.836Z,11.48
2018-12-05T02:51:33.008Z,12.58
2018-12-05T02:52:37.011Z,11.40
2018-12-05T02:53:41.016Z,10.95
2018-12-05T02:54:45.103Z,11.93
2018-12-05T02:55:49.305Z,11.75
2018-12-05T02:56:53.416Z,12.30
2018-12-05T02:57:57.569Z,11.73
2018-12-05T02:59:01.790Z,12.65
2018-12-05T03:00:06.815Z,11.85
2018-12-05T03:01:11.050Z,11.35
2018-12-05T03:02:15.146Z,12.78
2018-12-05T03:03:19.145Z,11.80
2018-12-05T03:04:23.423Z,11.25
2018-12-05T03:05:27.573Z,11.53
2018-12-05T03:06:31.583Z,12.15
2018-12-05T03:07:35.755Z,13.10
2018-12-05T03:08:39.735Z,10.90
2018-12-05T03:09:43.980Z,13.15
2018-12-05T03:10:47.985Z,11.65
2018-12-05T03:11:52.263Z,11.85
2018-12-05T03:12:56.474Z,11.08
2018-12-05T03:14:00.558Z,11.70
2018-12-05T03:15:05.644Z,12.82
2018-12-05T03:16:09.844Z,12.73
2018-12-05T03:18:29.079Z,11.68
2018-12-05T03:19:33.115Z,12.68
2018-12-05T03:20:37.203Z,12.45
2018-12-05T03:21:41.897Z,11.68
2018-12-05T03:22:45.937Z,12.33
2018-12-05T03:23:50.023Z,12.82
2018-12-05T03:24:54.337Z,12.47
2018-12-05T03:25:58.404Z,12.63
2018-12-05T03:27:02.459Z,12.00
2018-12-05T03:28:06.587Z,11.88
2018-12-05T03:29:10.667Z,12.58
2018-12-05T03:30:14.867Z,12.23
2018-12-05T03:31:19.012Z,13.08
2018-12-05T03:32:23.176Z,11.60
2018-12-05T03:33:27.392Z,12.00
2018-12-05T03:34:31.531Z,12.75
2018-12-05T03:35:38.769Z,12.68
2018-12-05T03:36:42.969Z,12.23
2018-12-05T03:37:47.084Z,12.80
2018-12-05T03:38:51.255Z,11.50
2018-12-05T03:39:55.333Z,12.20
2018-12-05T03:40:59.544Z,12.45
2018-12-05T03:42:03.787Z,11.10
2018-12-05T03:43:07.844Z,12.80
2018-12-05T03:44:11.882Z,12.98
2018-12-05T03:45:16.715Z,11.73
2018-12-05T03:46:20.797Z,12.30
2018-12-05T03:47:24.915Z,11.38
2018-12-05T03:48:28.974Z,12.58
2018-12-05T03:49:33.119Z,13.18
2018-12-05T03:50:37.203Z,13.48
2018-12-05T03:51:41.329Z,11.48
2018-12-05T03:52:45.510Z,13.05
2018-12-05T03:53:49.687Z,12.40
2018-12-05T03:54:53.736Z,12.85
2018-12-05T03:55:57.881Z,11.57
2018-12-05T03:57:02.067Z,11.12
2018-12-05T03:58:06.339Z,12.73
2018-12-05T03:59:10.553Z,13.53
2018-12-05T04:00:14.624Z,12.03
2018-12-05T04:01:18.692Z,13.28
2018-12-05T04:02:22.752Z,12.55
2018-12-05T04:03:26.846Z,11.25
2018-12-05T04:04:30.906Z,12.88
2018-12-05T04:05:35.059Z,12.20
2018-12-05T04:06:39.265Z,12.98
2018-12-05T04:07:43.367Z,12.75
2018-12-05T04:08:47.451Z,12.18
2018-12-05T04:09:51.707Z,12.47
2018-12-05T04:10:55.787Z,12.78
2018-12-05T04:11:59.998Z,11.70
2018-12-05T04:13:04.215Z,12.58
2018-12-05T04:14:08.924Z,12.58
2018-12-05T04:15:13.106Z,10.75
2018-12-05T04:16:17.089Z,10.65
2018-12-05T04:17:21.575Z,11.45
2018-12-05T04:18:25.625Z,10.58
2018-12-05T04:19:29.906Z,11.48
2018-12-05T04:20:34.143Z,12.35
2018-12-05T04:21:38.188Z,11.25
2018-12-05T04:22:42.211Z,11.48
2018-12-05T04:23:46.370Z,11.00
2018-12-05T04:24:50.510Z,12.15
2018-12-05T04:25:54.691Z,11.35
2018-12-05T04:26:58.718Z,11.95
2018-12-05T04:28:02.856Z,12.05
2018-12-05T04:29:06.936Z,12.82
2018-12-05T04:30:11.086Z,10.70
2018-12-05T04:31:15.177Z,11.50
2018-12-05T04:32:19.248Z,12.45
2018-12-05T04:33:23.302Z,11.65
2018-12-05T04:34:27.404Z,11.08
2018-12-05T04:35:31.411Z,12.07
2018-12-05T04:36:35.467Z,12.55
2018-12-05T04:37:39.654Z,11.70
2018-12-05T04:38:43.683Z,11.70
2018-12-05T04:39:47.767Z,13.30
2018-12-05T04:40:51.880Z,12.75
2018-12-05T04:41:56.036Z,12.82
2018-12-05T04:43:00.032Z,11.63
2018-12-05T04:44:04.204Z,12.23
2018-12-05T04:45:08.406Z,11.90
2018-12-05T04:46:12.545Z,11.25
2018-12-05T04:47:16.589Z,12.35
2018-12-05T04:48:20.702Z,12.55
2018-12-05T04:49:24.897Z,14.05
2018-12-05T04:50:28.957Z,11.97
2018-12-05T04:51:33.301Z,13.13
2018-12-05T04:52:37.315Z,12.30
2018-12-05T04:53:41.382Z,12.20
2018-12-05T04:54:45.554Z,13.20
2018-12-05T04:55:49.699Z,12.07
2018-12-05T04:56:53.883Z,12.43
2018-12-05T04:57:57.972Z,11.73
2018-12-05T04:59:02.014Z,13.43
2018-12-05T05:00:07.284Z,11.43
2018-12-05T05:01:11.563Z,11.95
2018-12-05T05:02:15.857Z,12.13
2018-12-05T05:03:20.012Z,12.98
2018-12-05T05:04:24.147Z,11.90
2018-12-05T05:05:28.191Z,11.93
2018-12-05T05:06:32.247Z,12.20
2018-12-05T05:07:36.299Z,12.47
2018-12-05T05:08:40.469Z,11.95
2018-12-05T05:09:44.969Z,12.88
2018-12-05T05:10:49.150Z,12.00
2018-12-05T05:11:53.200Z,12.88
2018-12-05T05:12:57.662Z,12.13
2018-12-05T05:14:01.766Z,11.75
2018-12-05T05:15:06.056Z,11.70
2018-12-05T05:16:10.254Z,10.23
2018-12-05T05:17:14.379Z,12.00
2018-12-05T05:18:18.552Z,11.68
2018-12-05T05:19:22.738Z,12.78
2018-12-05T05:20:26.862Z,12.63
2018-12-05T05:21:30.903Z,11.88
2018-12-05T05:22:34.993Z,11.12
2018-12-05T05:23:40.412Z,11.60
2018-12-05T05:24:44.579Z,11.10
2018-12-05T05:25:48.619Z,12.07
2018-12-05T05:26:52.679Z,12.53
2018-12-05T05:27:56.857Z,13.28
2018-12-05T05:29:00.997Z,10.70
2018-12-05T05:30:05.793Z,11.78
2018-12-05T05:31:10.066Z,11.40
2018-12-05T05:32:14.109Z,12.15
2018-12-05T05:33:18.185Z,11.70
2018-12-05T05:34:22.233Z,11.65
2018-12-05T05:35:26.310Z,13.43
2018-12-05T05:36:30.367Z,10.30
2018-12-05T05:37:34.470Z,11.05
2018-12-05T05:38:38.481Z,12.60
2018-12-05T05:39:42.560Z,11.73
2018-12-05T05:40:46.831Z,11.48
2018-12-05T05:41:51.259Z,11.20
2018-12-05T05:42:55.314Z,10.40
2018-12-05T05:43:59.418Z,10.85
2018-12-05T05:45:03.609Z,9.93
2018-12-05T05:46:07.719Z,11.43
2018-12-05T05:47:11.784Z,11.03
2018-12-05T05:48:16.000Z,11.53
2018-12-05T05:49:20.107Z,11.30
2018-12-05T05:50:24.196Z,11.55
2018-12-05T05:51:28.294Z,11.65
2018-12-05T05:52:32.398Z,11.22
2018-12-05T05:53:36.467Z,10.58
2018-12-05T05:54:40.578Z,11.33
2018-12-05T05:55:44.755Z,12.55
2018-12-05T05:56:48.774Z,10.45
2018-12-05T05:57:52.866Z,11.33
2018-12-05T05:58:56.957Z,11.28
2018-12-05T06:00:00.980Z,11.43
2018-12-05T06:01:05.343Z,12.25
2018-12-05T06:02:09.467Z,11.10
2018-12-05T06:03:13.555Z,12.30
2018-12-05T06:04:17.686Z,12.25
2018-12-05T06:05:21.727Z,11.33
2018-12-05T06:06:26.085Z,12.45
2018-12-05T06:07:30.151Z,12.13
2018-12-05T06:08:34.247Z,10.18
2018-12-05T06:09:38.370Z,11.25
2018-12-05T06:10:42.436Z,11.15
2018-12-05T06:11:46.626Z,12.07
2018-12-05T06:12:50.717Z,11.20
2018-12-05T06:13:54.897Z,11.03
2018-12-05T06:14:59.063Z,10.85
2018-12-05T06:16:03.280Z,10.50
2018-12-05T06:17:07.451Z,12.15
2018-12-05T06:18:11.609Z,11.20
2018-12-05T06:19:15.752Z,13.60
2018-12-05T06:20:19.912Z,11.78
2018-12-05T06:21:24.058Z,11.95
2018-12-05T06:22:28.103Z,11.73
2018-12-05T06:23:32.215Z,12.53
2018-12-05T06:24:36.515Z,12.15
2018-12-05T06:25:40.658Z,12.03
2018-12-05T06:26:44.695Z,12.10
2018-12-05T06:27:48.818Z,12.03
2018-12-05T06:28:52.920Z,12.50
2018-12-05T06:29:57.025Z,14.13
2018-12-05T06:31:01.267Z,12.15
2018-12-05T06:32:05.505Z,12.50
2018-12-05T06:33:09.636Z,12.85
2018-12-05T06:34:13.881Z,12.33
2018-12-05T06:35:17.995Z,11.63
2018-12-05T06:36:22.263Z,11.80
2018-12-05T06:37:26.315Z,11.78
2018-12-05T06:38:30.386Z,11.08
2018-12-05T06:39:34.454Z,11.97
2018-12-05T06:40:38.569Z,11.43
2018-12-05T06:41:42.765Z,12.53
2018-12-05T06:42:46.944Z,9.48
2018-12-05T06:43:51.016Z,11.78
2018-12-05T06:44:55.087Z,12.75
2018-12-05T06:45:59.151Z,11.78
2018-12-05T06:47:03.319Z,10.82
2018-12-05T06:48:07.456Z,10.85
2018-12-05T06:49:11.873Z,10.55
2018-12-05T06:50:16.000Z,9.83
2018-12-05T06:51:20.079Z,11.68
2018-12-05T06:52:24.301Z,11.60
2018-12-05T06:53:28.528Z,10.88
2018-12-05T06:54:32.656Z,11.05
2018-12-05T06:55:39.293Z,11.50
2018-12-05T06:56:42.910Z,12.55
2018-12-05T06:57:47.086Z,11.20
2018-12-05T06:58:51.215Z,12.20
2018-12-05T06:59:55.393Z,11.38
2018-12-05T07:00:59.666Z,11.35
2018-12-05T07:02:03.830Z,11.40
2018-12-05T07:03:07.883Z,10.55
2018-12-05T07:04:11.987Z,9.68
2018-12-05T07:05:16.143Z,12.40
2018-12-05T07:06:20.271Z,12.25
2018-12-05T07:07:24.348Z,11.28
2018-12-05T07:08:28.590Z,10.35
2018-12-05T07:09:33.539Z,10.72
2018-12-05T07:10:37.721Z,10.32
2018-12-05T07:11:42.066Z,9.78
2018-12-05T07:12:46.176Z,10.30
2018-12-05T07:13:50.340Z,10.72
2018-12-05T07:14:54.640Z,9.20
2018-12-05T07:15:59.035Z,9.95
2018-12-05T07:17:03.261Z,11.53
2018-12-05T07:18:07.388Z,9.93
2018-12-05T07:19:11.467Z,9.40
2018-12-05T07:20:15.704Z,9.50
2018-12-05T07:21:20.017Z,11.38
2018-12-05T07:22:24.159Z,11.48
2018-12-05T07:23:28.253Z,11.03
2018-12-05T07:24:32.423Z,10.30
2018-12-05T07:25:36.667Z,10.70
2018-12-05T07:26:40.821Z,8.83
2018-12-05T07:27:45.049Z,9.20
2018-12-05T07:28:49.531Z,9.65
2018-12-05T07:29:53.761Z,9.05
2018-12-05T07:30:57.824Z,9.25
2018-12-05T07:32:01.942Z,9.73
2018-12-05T07:33:06.373Z,9.25
2018-12-05T07:34:10.521Z,9.55
2018-12-05T07:35:14.602Z,8.85
2018-12-05T07:36:18.720Z,8.93
2018-12-05T07:37:22.854Z,8.95
2018-12-05T07:38:27.046Z,9.68
2018-12-05T07:39:31.065Z,9.65
2018-12-05T07:40:35.276Z,8.78
2018-12-05T07:41:39.493Z,8.63
2018-12-05T07:42:43.616Z,9.60
2018-12-05T07:43:47.884Z,9.00
2018-12-05T07:44:51.979Z,9.78
2018-12-05T07:45:56.414Z,9.23
2018-12-05T07:47:00.631Z,9.80
2018-12-05T07:48:04.741Z,8.25
2018-12-05T07:49:08.879Z,9.25
2018-12-05T07:50:13.040Z,8.38
2018-12-05T07:51:17.183Z,9.65
2018-12-05T07:52:21.347Z,9.53
2018-12-05T07:53:25.472Z,9.50
2018-12-05T07:54:29.574Z,8.63
2018-12-05T07:55:33.608Z,9.70
2018-12-05T07:56:37.753Z,8.13
2018-12-05T07:57:41.862Z,9.28
2018-12-05T07:58:46.043Z,8.03
2018-12-05T07:59:50.232Z,9.03
2018-12-05T08:00:54.496Z,8.35
2018-12-05T08:01:58.766Z,8.93
2018-12-05T08:03:02.863Z,9.60
2018-12-05T08:04:07.039Z,9.85
2018-12-05T08:05:11.323Z,9.20
2018-12-05T08:06:15.411Z,8.58
2018-12-05T08:07:20.264Z,7.78
2018-12-05T08:08:24.330Z,9.10
2018-12-05T08:09:28.885Z,7.70
2018-12-05T08:10:33.023Z,7.45
2018-12-05T08:11:37.191Z,8.95
2018-12-05T08:12:41.346Z,9.23
2018-12-05T08:13:45.324Z,7.22
2018-12-05T08:14:49.415Z,7.72
2018-12-05T08:15:53.572Z,8.23
2018-12-05T08:16:57.826Z,8.65
2018-12-05T08:18:01.908Z,8.25
2018-12-05T08:19:06.104Z,8.60
2018-12-05T08:20:10.335Z,7.97
2018-12-05T08:21:14.577Z,7.65
2018-12-05T08:22:18.639Z,8.78
2018-12-05T08:23:22.698Z,8.03
2018-12-05T08:24:26.755Z,8.28
2018-12-05T08:25:30.988Z,7.90
2018-12-05T08:26:35.188Z,8.10
2018-12-05T08:27:39.441Z,8.30
2018-12-05T08:28:43.605Z,8.20
2018-12-05T08:29:47.723Z,9.03
2018-12-05T08:30:51.824Z,7.30
2018-12-05T08:31:55.886Z,8.68
2018-12-05T08:32:59.944Z,8.65
2018-12-05T08:34:04.069Z,8.30
2018-12-05T08:35:08.757Z,7.47
2018-12-05T08:36:12.884Z,7.90
2018-12-05T08:37:16.987Z,6.33
2018-12-05T08:38:21.099Z,7.85
2018-12-05T08:39:25.192Z,7.85
2018-12-05T08:40:29.202Z,7.67
2018-12-05T08:41:33.469Z,8.10
2018-12-05T08:42:37.538Z,8.73
2018-12-05T08:43:41.621Z,7.15
2018-12-05T08:44:46.098Z,7.80
2018-12-05T08:45:50.070Z,6.70
2018-12-05T08:46:54.231Z,8.60
2018-12-05T08:47:58.359Z,7.37
2018-12-05T08:49:02.527Z,8.48
2018-12-05T08:50:06.971Z,8.10
2018-12-05T08:51:11.036Z,8.53
2018-12-05T08:52:15.102Z,8.08
2018-12-05T08:53:19.305Z,7.83
2018-12-05T08:54:23.420Z,8.90
2018-12-05T08:55:27.599Z,7.70
2018-12-05T08:56:31.690Z,8.00
2018-12-05T08:57:35.913Z,7.87
2018-12-05T08:58:40.130Z,7.50
2018-12-05T08:59:44.158Z,8.25
2018-12-05T09:00:48.300Z,8.13
2018-12-05T09:01:52.293Z,7.67
2018-12-05T09:02:56.377Z,8.88
2018-12-05T09:04:00.382Z,8.20
2018-12-05T09:05:04.779Z,8.65
2018-12-05T09:06:08.854Z,8.70
2018-12-05T09:07:12.895Z,8.08
2018-12-05T09:08:17.124Z,7.85
2018-12-05T09:09:21.299Z,8.58
2018-12-05T09:10:25.321Z,8.53
2018-12-05T09:11:29.534Z,8.45
2018-12-05T09:12:33.659Z,9.28
2018-12-05T09:13:37.779Z,8.00
2018-12-05T09:14:42.042Z,7.62
2018-12-05T09:15:47.620Z,7.58
2018-12-05T09:16:51.757Z,8.00
2018-12-05T09:17:55.939Z,8.40
2018-12-05T09:18:59.969Z,8.33
2018-12-05T09:20:04.732Z,7.40
2018-12-05T09:21:08.703Z,8.60
2018-12-05T09:22:12.962Z,8.18
2018-12-05T09:23:17.527Z,8.73
2018-12-05T09:24:21.681Z,7.30
2018-12-05T09:25:25.881Z,7.90
2018-12-05T09:26:30.336Z,8.28
2018-12-05T09:27:34.366Z,8.45
2018-12-05T09:28:38.514Z,8.15
2018-12-05T09:29:43.225Z,8.60
2018-12-05T09:30:48.123Z,7.80
2018-12-05T09:31:53.463Z,7.83
2018-12-05T09:32:57.499Z,7.97
2018-12-05T09:34:01.616Z,7.90
2018-12-05T09:35:06.538Z,7.78
2018-12-05T09:36:10.865Z,8.30
2018-12-05T09:37:15.076Z,9.60
2018-12-05T09:38:19.119Z,9.30
2018-12-05T09:39:23.249Z,9.28
2018-12-05T09:40:27.211Z,7.97
2018-12-05T09:41:31.297Z,8.68
2018-12-05T09:42:35.416Z,8.73
2018-12-05T09:43:39.408Z,7.10
2018-12-05T09:44:43.504Z,7.55
2018-12-05T09:45:49.019Z,8.53
2018-12-05T09:46:53.111Z,8.58
2018-12-05T09:47:58.971Z,9.35
2018-12-05T09:49:03.086Z,11.33
2018-12-05T09:50:07.335Z,8.53
2018-12-05T09:51:11.495Z,8.23
2018-12-05T09:52:15.542Z,9.00
2018-12-05T09:53:19.659Z,9.38
2018-12-05T09:54:23.733Z,7.95
2018-12-05T09:55:27.787Z,8.58
2018-12-05T09:56:31.804Z,8.88
2018-12-05T09:57:36.021Z,9.65
2018-12-05T09:58:40.027Z,9.23
2018-12-05T09:59:44.039Z,8.95
2018-12-05T10:00:48.100Z,7.85
2018-12-05T10:01:52.348Z,8.43
2018-12-05T10:02:56.362Z,8.53
2018-12-05T10:04:00.370Z,9.18
2018-12-05T10:05:05.347Z,8.95
2018-12-05T10:06:09.347Z,8.30
2018-12-05T10:07:13.479Z,9.45
2018-12-05T10:08:17.880Z,9.05
2018-12-05T10:09:21.923Z,8.93
2018-12-05T10:10:25.990Z,8.28
2018-12-05T10:11:30.113Z,8.40
2018-12-05T10:12:41.051Z,9.78
2018-12-05T10:13:45.164Z,8.90
2018-12-05T10:14:49.237Z,8.80
2018-12-05T10:15:53.235Z,7.97
2018-12-05T10:16:57.279Z,8.90
2018-12-05T10:18:01.724Z,8.55
2018-12-05T10:19:05.905Z,9.53
2018-12-05T10:20:10.106Z,10.20
2018-12-05T10:21:14.226Z,10.35
2018-12-05T10:22:18.340Z,8.60
2018-12-05T10:23:22.494Z,7.97
2018-12-05T10:24:26.500Z,8.85
2018-12-05T10:25:30.527Z,8.63
2018-12-05T10:26:34.560Z,9.70
2018-12-05T10:27:38.763Z,9.75
2018-12-05T10:28:42.804Z,10.90
2018-12-05T10:29:46.840Z,9.40
2018-12-05T10:30:51.107Z,9.13
2018-12-05T10:31:55.165Z,9.50
2018-12-05T10:33:00.240Z,10.15
2018-12-05T10:34:04.428Z,10.00
2018-12-05T10:35:08.565Z,9.55
2018-12-05T10:36:12.756Z,10.55
2018-12-05T10:37:16.972Z,10.13
2018-12-05T10:38:21.025Z,10.78
2018-12-05T10:39:25.247Z,10.18
2018-12-05T10:40:29.382Z,10.08
2018-12-05T10:41:33.412Z,10.13
2018-12-05T10:42:37.504Z,11.10
2018-12-05T10:43:41.563Z,12.20
2018-12-05T10:44:45.679Z,10.72
2018-12-05T10:45:49.819Z,10.18
2018-12-05T10:46:54.007Z,10.05
2018-12-05T10:47:58.082Z,11.20
2018-12-05T10:49:02.338Z,12.10
2018-12-05T10:50:07.503Z,15.70
2018-12-05T10:51:11.543Z,12.13
2018-12-05T10:52:15.591Z,12.15
2018-12-05T10:53:19.752Z,12.98
2018-12-05T10:54:24.123Z,11.97
2018-12-05T10:55:28.303Z,11.38
2018-12-05T10:56:32.525Z,12.68
2018-12-05T10:57:36.741Z,9.55
2018-12-05T10:58:40.783Z,10.82
2018-12-05T10:59:44.956Z,12.78
2018-12-05T11:00:54.806Z,11.20
2018-12-05T11:02:04.364Z,9.88
2018-12-05T11:03:17.483Z,10.70
2018-12-05T11:04:27.170Z,10.65
2018-12-05T11:05:36.590Z,10.03
2018-12-05T11:06:46.054Z,10.75
2018-12-05T11:07:56.223Z,10.95
2018-12-05T11:09:05.884Z,10.93
2018-12-05T11:10:15.358Z,11.60
2018-12-05T11:11:24.873Z,11.22
2018-12-05T11:12:34.487Z,11.68
2018-12-05T11:13:43.992Z,13.38
2018-12-05T11:14:53.482Z,14.73
2018-12-05T11:17:02.895Z,10.20
2018-12-05T11:18:12.731Z,10.65
2018-12-05T11:19:22.254Z,12.15
2018-12-05T11:20:31.619Z,11.75
2018-12-05T11:21:41.019Z,12.47
2018-12-05T11:23:53.393Z,12.35
2018-12-05T11:25:07.238Z,10.65
2018-12-05T11:26:14.327Z,11.57
2018-12-05T11:27:18.331Z,10.35
2018-12-05T11:28:22.524Z,11.78
2018-12-05T11:29:26.741Z,11.78
2018-12-05T11:30:30.712Z,12.93
2018-12-05T11:31:35.026Z,11.73
2018-12-05T11:32:39.082Z,11.18
2018-12-05T11:33:43.243Z,12.28
2018-12-05T11:34:47.299Z,13.05
2018-12-05T11:35:51.310Z,12.43
2018-12-05T11:36:55.352Z,11.63
2018-12-05T11:37:59.480Z,13.43
2018-12-05T11:39:05.754Z,13.53
2018-12-05T11:40:10.014Z,11.28
2018-12-05T11:41:14.302Z,12.90
2018-12-05T11:42:18.486Z,11.03
2018-12-05T11:43:22.583Z,11.65
2018-12-05T11:44:26.622Z,11.35
2018-12-05T11:45:30.759Z,12.05
2018-12-05T11:46:34.769Z,12.70
2018-12-05T11:47:38.877Z,12.18
2018-12-05T11:48:43.043Z,12.40
2018-12-05T11:49:47.430Z,11.35
2018-12-05T11:50:51.495Z,10.65
2018-12-05T11:51:55.539Z,11.70
2018-12-05T11:52:59.690Z,11.95
2018-12-05T11:54:03.720Z,12.00
2018-12-05T11:55:08.001Z,12.80
2018-12-05T11:56:12.027Z,12.35
2018-12-05T11:57:16.112Z,11.90
2018-12-05T11:58:20.226Z,11.65
2018-12-05T11:59:24.585Z,11.25
2018-12-05T12:00:28.764Z,10.32
2018-12-05T12:01:32.967Z,10.85
2018-12-05T12:02:37.072Z,12.25
2018-12-05T12:03:41.238Z,11.60
2018-12-05T12:04:45.303Z,11.85
2018-12-05T12:05:49.555Z,11.73
2018-12-05T12:06:53.700Z,11.45
2018-12-05T12:07:57.640Z,11.63
2018-12-05T12:09:01.778Z,10.40
2018-12-05T12:10:06.100Z,11.90
2018-12-05T12:11:10.244Z,10.60
2018-12-05T12:12:20.130Z,10.35
2018-12-05T12:13:24.231Z,10.50
2018-12-05T12:14:28.450Z,11.65
2018-12-05T12:15:32.720Z,11.00
2018-12-05T12:16:36.843Z,11.25
2018-12-05T12:17:41.903Z,11.18
2018-12-05T12:18:46.718Z,11.80
2018-12-05T12:19:50.859Z,11.73
2018-12-05T12:20:55.018Z,11.08
2018-12-05T12:21:59.177Z,11.38
2018-12-05T12:23:03.331Z,11.25
2018-12-05T12:24:07.716Z,11.43
2018-12-05T12:25:11.923Z,10.85
2018-12-05T12:26:16.045Z,11.28
2018-12-05T12:27:20.214Z,9.53
2018-12-05T12:28:24.363Z,11.60
2018-12-05T12:29:28.667Z,10.43
2018-12-05T12:30:32.710Z,11.00
2018-12-05T12:31:36.783Z,33.90
2018-12-05T12:32:40.957Z,12.37
2018-12-05T12:33:45.071Z,10.82
2018-12-05T12:34:49.275Z,10.35
2018-12-05T12:35:53.357Z,11.10
2018-12-05T12:36:57.343Z,10.95
2018-12-05T12:38:01.539Z,11.85
2018-12-05T12:39:07.503Z,11.78
2018-12-05T12:40:11.573Z,10.63
2018-12-05T12:41:15.774Z,11.88
2018-12-05T12:42:19.922Z,11.97
2018-12-05T12:43:23.983Z,11.28
2018-12-05T12:44:28.083Z,11.53
2018-12-05T12:45:32.223Z,10.28
2018-12-05T12:46:36.256Z,11.03
2018-12-05T12:47:40.278Z,11.12
2018-12-05T12:48:44.346Z,10.45
2018-12-05T12:49:48.534Z,10.80
2018-12-05T12:50:52.588Z,12.88
2018-12-05T12:51:56.664Z,10.55
2018-12-05T12:53:00.742Z,12.45
2018-12-05T12:54:05.462Z,11.18
2018-12-05T12:55:09.852Z,11.25
2018-12-05T12:56:13.943Z,11.48
2018-12-05T12:57:18.088Z,11.20
2018-12-05T12:58:22.160Z,10.60
2018-12-05T12:59:26.263Z,12.18
2018-12-05T13:00:30.503Z,10.90
2018-12-05T13:01:34.816Z,12.23
2018-12-05T13:02:39.021Z,11.12
2018-12-05T13:03:43.540Z,11.93
2018-12-05T13:04:47.562Z,11.25
2018-12-05T13:05:51.664Z,11.10
2018-12-05T13:06:55.862Z,11.03
2018-12-05T13:07:59.923Z,11.10
2018-12-05T13:09:06.122Z,11.50
2018-12-05T13:10:10.416Z,11.63
2018-12-05T13:11:14.484Z,11.70
2018-12-05T13:12:23.863Z,12.20
2018-12-05T13:13:27.983Z,11.18
2018-12-05T13:14:32.137Z,10.90
2018-12-05T13:15:36.434Z,11.53
2018-12-05T13:16:40.595Z,10.85
2018-12-05T13:17:44.658Z,11.03
2018-12-05T13:18:49.682Z,10.85
2018-12-05T13:19:54.843Z,10.03
2018-12-05T13:20:58.979Z,10.98
2018-12-05T13:22:03.121Z,10.68
2018-12-05T13:23:07.156Z,11.22
2018-12-05T13:24:11.151Z,11.90
2018-12-05T13:25:15.215Z,9.38
2018-12-05T13:26:19.419Z,12.03
2018-12-05T13:27:23.532Z,11.35
2018-12-05T13:28:27.604Z,11.10
2018-12-05T13:29:31.594Z,11.60
2018-12-05T13:30:36.001Z,11.30
2018-12-05T13:31:40.159Z,12.88
2018-12-05T13:32:44.278Z,11.28
2018-12-05T13:33:48.355Z,12.25
2018-12-05T13:34:52.374Z,10.32
2018-12-05T13:35:56.421Z,11.50
2018-12-05T13:37:00.470Z,11.90
2018-12-05T13:38:04.644Z,10.70
2018-12-05T13:39:09.278Z,10.55
2018-12-05T13:40:13.409Z,11.00
2018-12-05T13:41:17.410Z,10.98
2018-12-05T13:42:21.475Z,12.10
2018-12-05T13:43:25.730Z,11.38
2018-12-05T13:44:29.848Z,11.10
2018-12-05T13:45:34.146Z,11.60
2018-12-05T13:46:38.215Z,11.15
2018-12-05T13:47:42.482Z,11.00
2018-12-05T13:48:46.490Z,12.30
2018-12-05T13:49:50.531Z,10.95
2018-12-05T13:50:54.729Z,11.57
2018-12-05T13:51:58.816Z,11.78
2018-12-05T13:53:02.787Z,12.25
2018-12-05T13:54:07.125Z,12.98
2018-12-05T13:55:11.309Z,11.18
2018-12-05T13:56:15.491Z,11.68
2018-12-05T13:57:19.800Z,11.55
2018-12-05T13:58:23.926Z,12.82
2018-12-05T13:59:28.097Z,12.95
2018-12-05T14:00:32.170Z,10.82
2018-12-05T14:01:36.278Z,12.07
2018-12-05T14:02:40.283Z,11.57
2018-12-05T14:03:44.291Z,11.95